createdAt,value
2018-03-11T00:00:33.474Z,97.55
2018-03-11T00:01:33.512Z,97.64
2018-03-11T00:02:33.524Z,98.07
2018-03-11T00:03:33.549Z,98.79
2018-03-11T00:04:33.575Z,98.50
2018-03-11T00:05:33.590Z,98.60
2018-03-11T00:06:33.620Z,98.31
2018-03-11T00:07:33.649Z,97.97
2018-03-11T00:08:33.665Z,98.41
2018-03-11T00:09:33.689Z,98.41
2018-03-11T00:10:33.765Z,98.50
2018-03-11T00:11:33.750Z,99.16
2018-03-11T00:12:33.776Z,99.36
2018-03-11T00:13:33.790Z,99.26
2018-03-11T00:14:33.822Z,98.31
2018-03-11T00:15:33.834Z,98.64
2018-03-11T00:16:33.854Z,97.78
2018-03-11T00:17:33.875Z,98.17
2018-03-11T00:18:33.907Z,98.12
2018-03-11T00:19:33.934Z,98.03
2018-03-11T00:20:33.957Z,97.60
2018-03-11T00:21:33.973Z,97.55
2018-03-11T00:22:34.008Z,97.36
2018-03-11T00:23:34.019Z,97.08
2018-03-11T00:24:34.049Z,97.41
2018-03-11T00:25:34.098Z,97.31
2018-03-11T00:26:34.095Z,97.50
2018-03-11T00:27:34.115Z,97.83
2018-03-11T00:28:34.148Z,97.64
2018-03-11T00:29:34.164Z,97.64
2018-03-11T00:30:34.189Z,96.84
2018-03-11T00:31:34.206Z,97.17
2018-03-11T00:32:34.242Z,97.17
2018-03-11T00:33:34.258Z,97.55
2018-03-11T00:34:34.305Z,97.36
2018-03-11T00:35:34.303Z,96.84
2018-03-11T00:36:34.826Z,97.03
2018-03-11T00:37:34.353Z,97.69
2018-03-11T00:38:34.377Z,97.36
2018-03-11T00:39:34.400Z,97.45
2018-03-11T00:40:34.436Z,97.17
2018-03-11T00:41:34.444Z,97.27
2018-03-11T00:42:34.467Z,97.45
2018-03-11T00:43:34.574Z,97.64
2018-03-11T00:44:34.528Z,98.03
2018-03-11T00:45:34.549Z,98.12
2018-03-11T00:46:34.637Z,97.83
2018-03-11T00:47:34.602Z,97.93
2018-03-11T00:48:34.610Z,97.64
2018-03-11T00:49:34.691Z,97.64
2018-03-11T00:50:34.654Z,97.93
2018-03-11T00:51:34.683Z,97.64
2018-03-11T00:52:34.709Z,98.03
2018-03-11T00:53:34.753Z,98.22
2018-03-11T00:54:34.751Z,97.83
2018-03-11T00:55:34.784Z,98.88
2018-03-11T00:56:34.795Z,98.41
2018-03-11T00:57:34.921Z,98.88
2018-03-11T00:58:34.844Z,99.26
2018-03-11T00:59:34.875Z,99.36
2018-03-11T01:00:34.897Z,99.36
2018-03-11T01:01:34.916Z,99.36
2018-03-11T01:02:34.936Z,99.64
2018-03-11T01:03:34.965Z,99.36
2018-03-11T01:04:34.990Z,98.88
2018-03-11T01:05:35.008Z,98.97
2018-03-11T01:06:35.037Z,99.26
2018-03-11T01:07:35.059Z,99.07
2018-03-11T01:08:35.089Z,99.07
2018-03-11T01:09:35.110Z,99.16
2018-03-11T01:10:35.140Z,98.97
2018-03-11T01:11:35.152Z,99.36
2018-03-11T01:12:35.176Z,99.93
2018-03-11T01:13:35.206Z,99.74
2018-03-11T01:14:35.226Z,99.84
2018-03-11T01:15:35.259Z,99.99
2018-03-11T01:16:35.273Z,99.55
2018-03-11T01:17:35.294Z,99.99
2018-03-11T01:18:35.325Z,99.93
2018-03-11T01:19:35.351Z,99.84
2018-03-11T01:20:35.372Z,99.99
2018-03-11T01:21:35.384Z,99.99
2018-03-11T01:22:35.410Z,99.99
2018-03-11T01:23:35.441Z,99.74
2018-03-11T01:24:35.462Z,99.99
2018-03-11T01:25:35.478Z,99.99
2018-03-11T01:26:35.513Z,99.99
2018-03-11T01:27:35.571Z,99.99
2018-03-11T01:28:35.554Z,99.99
2018-03-11T01:29:35.576Z,99.93
2018-03-11T01:30:35.608Z,99.64
2018-03-11T01:31:35.630Z,99.99
2018-03-11T01:32:35.656Z,98.97
2018-03-11T01:33:35.736Z,98.50
2018-03-11T01:34:35.694Z,98.12
2018-03-11T01:35:35.769Z,97.74
2018-03-11T01:36:35.744Z,97.83
2018-03-11T01:37:35.764Z,98.60
2018-03-11T01:38:35.789Z,97.64
2018-03-11T01:39:35.815Z,97.93
2018-03-11T01:40:35.861Z,97.55
2018-03-11T01:41:35.862Z,97.55
2018-03-11T01:42:35.884Z,97.45
2018-03-11T01:43:35.908Z,96.98
2018-03-11T01:44:36.035Z,97.08
2018-03-11T01:45:35.965Z,97.17
2018-03-11T01:46:36.016Z,97.08
2018-03-11T01:47:36.001Z,96.98
2018-03-11T01:48:36.026Z,96.89
2018-03-11T01:49:36.049Z,97.03
2018-03-11T01:50:36.068Z,97.55
2018-03-11T01:51:36.108Z,97.55
2018-03-11T01:52:36.121Z,98.22
2018-03-11T01:53:36.148Z,97.60
2018-03-11T01:54:36.163Z,98.17
2018-03-11T01:55:36.313Z,97.97
2018-03-11T01:56:36.215Z,97.60
2018-03-11T01:57:36.838Z,98.26
2018-03-11T01:58:36.266Z,98.45
2018-03-11T01:59:36.283Z,98.55
2018-03-11T02:00:36.306Z,98.36
2018-03-11T02:01:36.349Z,98.41
2018-03-11T02:02:36.358Z,98.88
2018-03-11T02:03:36.375Z,98.12
2018-03-11T02:04:36.410Z,98.12
2018-03-11T02:05:36.452Z,98.12
2018-03-11T02:06:36.449Z,97.41
2018-03-11T02:07:36.470Z,97.50
2018-03-11T02:08:36.497Z,97.50
2018-03-11T02:09:36.528Z,97.50
2018-03-11T02:10:36.549Z,96.55
2018-03-11T02:11:36.573Z,96.45
2018-03-11T02:12:36.596Z,96.74
2018-03-11T02:13:36.614Z,97.41
2018-03-11T02:14:36.653Z,98.45
2018-03-11T02:15:36.669Z,97.97
2018-03-11T02:16:36.682Z,97.41
2018-03-11T02:17:36.705Z,97.03
2018-03-11T02:18:36.737Z,96.93
2018-03-11T02:19:36.748Z,97.12
2018-03-11T02:20:36.795Z,96.84
2018-03-11T02:21:36.808Z,97.22
2018-03-11T02:22:36.825Z,97.50
2018-03-11T02:23:36.852Z,97.41
2018-03-11T02:24:36.881Z,97.50
2018-03-11T02:25:36.892Z,97.97
2018-03-11T02:26:36.922Z,98.17
2018-03-11T02:27:36.944Z,98.74
2018-03-11T02:28:36.966Z,97.97
2018-03-11T02:29:36.989Z,97.97
2018-03-11T02:30:37.022Z,97.60
2018-03-11T02:31:37.035Z,97.78
2018-03-11T02:32:37.088Z,98.17
2018-03-11T02:33:37.094Z,98.83
2018-03-11T02:34:37.105Z,98.83
2018-03-11T02:35:37.154Z,98.17
2018-03-11T02:36:37.159Z,98.17
2018-03-11T02:37:37.172Z,98.17
2018-03-11T02:38:37.209Z,97.41
2018-03-11T02:39:37.235Z,97.60
2018-03-11T02:40:37.244Z,98.07
2018-03-11T02:41:37.271Z,97.69
2018-03-11T02:42:37.306Z,97.78
2018-03-11T02:43:37.320Z,97.12
2018-03-11T02:44:37.337Z,97.60
2018-03-11T02:45:37.364Z,97.41
2018-03-11T02:46:37.392Z,97.31
2018-03-11T02:47:37.412Z,97.50
2018-03-11T02:48:37.448Z,97.97
2018-03-11T02:49:37.464Z,98.17
2018-03-11T02:50:37.478Z,98.36
2018-03-11T02:51:37.506Z,98.74
2018-03-11T02:52:37.536Z,99.40
2018-03-11T02:53:37.552Z,98.83
2018-03-11T02:54:37.588Z,99.02
2018-03-11T02:55:37.599Z,98.74
2018-03-11T02:56:37.617Z,99.02
2018-03-11T02:57:37.644Z,99.40
2018-03-11T02:58:37.712Z,99.21
2018-03-11T02:59:37.689Z,99.21
2018-03-11T03:00:37.714Z,98.64
2018-03-11T03:01:37.753Z,97.97
2018-03-11T03:02:37.770Z,98.45
2018-03-11T03:03:37.793Z,98.45
2018-03-11T03:04:37.805Z,98.55
2018-03-11T03:05:37.850Z,98.26
2018-03-11T03:06:37.853Z,98.64
2018-03-11T03:07:37.936Z,98.55
2018-03-11T03:08:37.908Z,98.55
2018-03-11T03:09:37.928Z,98.07
2018-03-11T03:10:37.950Z,98.07
2018-03-11T03:11:37.969Z,98.55
2018-03-11T03:12:37.994Z,98.55
2018-03-11T03:13:38.033Z,98.26
2018-03-11T03:14:38.039Z,98.83
2018-03-11T03:15:38.063Z,99.30
2018-03-11T03:16:38.093Z,99.11
2018-03-11T03:17:38.123Z,99.11
2018-03-11T03:18:38.140Z,98.93
2018-03-11T03:19:38.172Z,98.83
2018-03-11T03:20:38.182Z,98.17
2018-03-11T03:21:38.199Z,98.36
2018-03-11T03:22:38.229Z,98.45
2018-03-11T03:23:38.258Z,98.26
2018-03-11T03:24:38.279Z,98.26
2018-03-11T03:25:38.308Z,98.45
2018-03-11T03:26:38.326Z,98.26
2018-03-11T03:27:38.359Z,98.26
2018-03-11T03:28:38.378Z,98.74
2018-03-11T03:29:39.344Z,98.45
2018-03-11T03:30:38.420Z,98.45
2018-03-11T03:31:38.463Z,98.07
2018-03-11T03:32:38.470Z,98.36
2018-03-11T03:33:38.502Z,98.45
2018-03-11T03:34:38.511Z,98.45
2018-03-11T03:35:38.533Z,98.74
2018-03-11T03:36:38.565Z,98.74
2018-03-11T03:37:38.580Z,98.45
2018-03-11T03:38:38.613Z,98.45
2018-03-11T03:39:38.634Z,98.07
2018-03-11T03:40:38.652Z,98.07
2018-03-11T03:41:38.677Z,98.17
2018-03-11T03:42:38.708Z,98.36
2018-03-11T03:43:38.723Z,98.55
2018-03-11T03:44:38.745Z,98.45
2018-03-11T03:45:38.766Z,98.26
2018-03-11T03:46:38.796Z,98.55
2018-03-11T03:47:38.813Z,98.55
2018-03-11T03:48:38.838Z,98.07
2018-03-11T03:49:38.856Z,97.97
2018-03-11T03:50:38.919Z,97.97
2018-03-11T03:51:38.907Z,97.88
2018-03-11T03:52:38.925Z,97.97
2018-03-11T03:53:38.951Z,98.17
2018-03-11T03:54:38.995Z,97.88
2018-03-11T03:55:39.009Z,98.64
2018-03-11T03:56:39.018Z,98.74
2018-03-11T03:57:39.038Z,98.74
2018-03-11T03:58:39.069Z,97.97
2018-03-11T03:59:39.087Z,98.17
2018-03-11T04:00:39.109Z,98.17
2018-03-11T04:01:39.137Z,97.97
2018-03-11T04:02:39.163Z,97.69
2018-03-11T04:03:39.195Z,97.50
2018-03-11T04:04:39.201Z,97.60
2018-03-11T04:05:39.232Z,97.31
2018-03-11T04:06:39.251Z,96.08
2018-03-11T04:07:39.277Z,95.89
2018-03-11T04:08:39.324Z,96.36
2018-03-11T04:09:39.331Z,97.03
2018-03-11T04:10:39.354Z,96.84
2018-03-11T04:11:39.379Z,96.36
2018-03-11T04:12:39.393Z,96.17
2018-03-11T04:13:39.418Z,95.94
2018-03-11T04:14:39.451Z,95.46
2018-03-11T04:15:39.463Z,95.27
2018-03-11T04:16:39.491Z,95.36
2018-03-11T04:17:39.506Z,95.17
2018-03-11T04:18:39.538Z,95.08
2018-03-11T04:19:39.567Z,96.12
2018-03-11T04:20:39.574Z,95.27
2018-03-11T04:21:39.600Z,95.55
2018-03-11T04:22:39.628Z,95.65
2018-03-11T04:23:39.646Z,95.46
2018-03-11T04:24:39.670Z,95.84
2018-03-11T04:25:39.698Z,96.31
2018-03-11T04:26:39.719Z,96.69
2018-03-11T04:27:39.742Z,96.50
2018-03-11T04:28:39.787Z,96.98
2018-03-11T04:29:39.792Z,97.17
2018-03-11T04:30:39.816Z,96.69
2018-03-11T04:31:39.838Z,97.27
2018-03-11T04:32:39.850Z,97.55
2018-03-11T04:33:39.893Z,97.74
2018-03-11T04:34:39.898Z,97.17
2018-03-11T04:35:39.932Z,96.88
2018-03-11T04:36:39.946Z,97.45
2018-03-11T04:37:40.116Z,97.27
2018-03-11T04:38:39.999Z,97.36
2018-03-11T04:39:40.026Z,97.55
2018-03-11T04:40:40.044Z,98.02
2018-03-11T04:41:40.076Z,97.74
2018-03-11T04:42:40.089Z,98.02
2018-03-11T04:43:40.112Z,97.92
2018-03-11T04:44:40.132Z,98.12
2018-03-11T04:45:40.153Z,98.12
2018-03-11T04:46:40.180Z,97.92
2018-03-11T04:47:40.216Z,97.74
2018-03-11T04:48:40.852Z,98.12
2018-03-11T04:49:40.263Z,97.74
2018-03-11T04:50:40.280Z,98.69
2018-03-11T04:51:40.311Z,98.69
2018-03-11T04:52:40.318Z,98.40
2018-03-11T04:53:40.341Z,98.40
2018-03-11T04:54:40.365Z,98.50
2018-03-11T04:55:40.388Z,98.40
2018-03-11T04:56:40.405Z,98.69
2018-03-11T04:57:40.431Z,98.31
2018-03-11T04:58:40.449Z,98.12
2018-03-11T04:59:40.477Z,98.12
2018-03-11T05:00:40.505Z,98.45
2018-03-11T05:01:40.552Z,97.92
2018-03-11T05:02:40.550Z,97.92
2018-03-11T05:03:40.582Z,98.50
2018-03-11T05:04:40.589Z,97.74
2018-03-11T05:05:40.611Z,98.59
2018-03-11T05:06:40.646Z,98.40
2018-03-11T05:07:40.663Z,98.40
2018-03-11T05:08:40.686Z,98.50
2018-03-11T05:09:40.714Z,98.50
2018-03-11T05:10:40.729Z,98.50
2018-03-11T05:11:40.752Z,98.50
2018-03-11T05:12:40.789Z,98.50
2018-03-11T05:13:40.798Z,98.31
2018-03-11T05:14:40.824Z,98.40
2018-03-11T05:15:40.846Z,98.40
2018-03-11T05:16:40.877Z,98.59
2018-03-11T05:17:40.888Z,98.40
2018-03-11T05:18:40.917Z,98.50
2018-03-11T05:19:40.940Z,98.50
2018-03-11T05:20:40.959Z,98.69
2018-03-11T05:21:40.988Z,98.31
2018-03-11T05:22:41.009Z,98.12
2018-03-11T05:23:41.029Z,97.92
2018-03-11T05:24:41.055Z,98.50
2018-03-11T05:25:41.081Z,98.79
2018-03-11T05:26:41.097Z,99.07
2018-03-11T05:27:41.121Z,99.16
2018-03-11T05:28:41.147Z,99.35
2018-03-11T05:29:41.164Z,99.35
2018-03-11T05:30:41.197Z,99.07
2018-03-11T05:31:41.228Z,98.88
2018-03-11T05:32:41.239Z,98.97
2018-03-11T05:33:41.265Z,98.97
2018-03-11T05:34:41.289Z,98.79
2018-03-11T05:35:41.309Z,98.69
2018-03-11T05:36:41.328Z,98.31
2018-03-11T05:37:41.349Z,98.97
2018-03-11T05:38:41.387Z,98.88
2018-03-11T05:39:41.399Z,98.69
2018-03-11T05:40:41.417Z,98.31
2018-03-11T05:41:41.451Z,98.31
2018-03-11T05:42:41.473Z,98.21
2018-03-11T05:43:41.498Z,98.12
2018-03-11T05:44:41.511Z,98.12
2018-03-11T05:45:41.531Z,98.31
2018-03-11T05:46:41.553Z,98.69
2018-03-11T05:47:41.629Z,98.31
2018-03-11T05:48:41.610Z,98.12
2018-03-11T05:49:41.629Z,98.69
2018-03-11T05:50:41.665Z,98.12
2018-03-11T05:51:41.678Z,98.02
2018-03-11T05:52:41.693Z,97.83
2018-03-11T05:53:41.716Z,98.02
2018-03-11T05:54:41.738Z,98.02
2018-03-11T05:55:41.766Z,97.64
2018-03-11T05:56:41.785Z,97.92
2018-03-11T05:57:41.819Z,98.12
2018-03-11T05:58:41.831Z,97.64
2018-03-11T05:59:41.856Z,97.64
2018-03-11T06:00:41.902Z,97.83
2018-03-11T06:01:41.896Z,98.12
2018-03-11T06:02:41.928Z,97.83
2018-03-11T06:03:41.980Z,97.55
2018-03-11T06:04:41.981Z,97.92
2018-03-11T06:05:41.986Z,97.55
2018-03-11T06:06:42.027Z,97.55
2018-03-11T06:07:42.032Z,97.36
2018-03-11T06:08:42.059Z,97.55
2018-03-11T06:09:42.081Z,97.45
2018-03-11T06:10:42.120Z,97.07
2018-03-11T06:11:42.136Z,97.27
2018-03-11T06:12:42.148Z,97.45
2018-03-11T06:13:42.198Z,97.45
2018-03-11T06:14:42.198Z,97.36
2018-03-11T06:15:42.218Z,97.64
2018-03-11T06:16:42.239Z,96.88
2018-03-11T06:17:42.283Z,96.79
2018-03-11T06:18:42.286Z,97.36
2018-03-11T06:19:42.305Z,97.45
2018-03-11T06:20:42.344Z,97.17
2018-03-11T06:21:42.364Z,95.94
2018-03-11T06:22:42.382Z,95.84
2018-03-11T06:23:42.417Z,96.69
2018-03-11T06:24:42.452Z,96.50
2018-03-11T06:25:42.466Z,96.41
2018-03-11T06:26:42.475Z,96.22
2018-03-11T06:27:42.491Z,95.94
2018-03-11T06:28:42.513Z,96.60
2018-03-11T06:29:42.535Z,96.79
2018-03-11T06:30:42.561Z,97.03
2018-03-11T06:31:42.592Z,97.12
2018-03-11T06:32:42.618Z,96.69
2018-03-11T06:33:42.641Z,96.98
2018-03-11T06:34:42.681Z,97.50
2018-03-11T06:35:42.692Z,97.78
2018-03-11T06:36:42.708Z,97.60
2018-03-11T06:37:42.733Z,97.50
2018-03-11T06:38:42.742Z,97.69
2018-03-11T06:39:42.778Z,97.31
2018-03-11T06:40:42.789Z,97.50
2018-03-11T06:41:42.815Z,97.12
2018-03-11T06:42:42.842Z,97.41
2018-03-11T06:43:42.870Z,97.31
2018-03-11T06:44:42.908Z,97.31
2018-03-11T06:45:42.902Z,97.41
2018-03-11T06:46:42.931Z,97.60
2018-03-11T06:47:42.970Z,97.69
2018-03-11T06:48:42.980Z,97.88
2018-03-11T06:49:42.995Z,97.88
2018-03-11T06:50:43.032Z,98.17
2018-03-11T06:51:43.042Z,97.97
2018-03-11T06:52:43.077Z,98.07
2018-03-11T06:53:43.106Z,98.45
2018-03-11T06:54:43.125Z,97.78
2018-03-11T06:55:43.135Z,98.55
2018-03-11T06:56:43.170Z,97.97
2018-03-11T06:57:43.197Z,98.26
2018-03-11T06:58:43.221Z,98.17
2018-03-11T06:59:43.231Z,98.07
2018-03-11T07:00:43.252Z,98.45
2018-03-11T07:01:43.291Z,97.88
2018-03-11T07:02:43.296Z,98.36
2018-03-11T07:03:43.360Z,98.17
2018-03-11T07:04:43.345Z,98.07
2018-03-11T07:05:43.375Z,98.26
2018-03-11T07:06:43.386Z,98.36
2018-03-11T07:07:43.417Z,98.26
2018-03-11T07:08:43.444Z,98.26
2018-03-11T07:09:43.478Z,98.36
2018-03-11T07:10:43.500Z,98.07
2018-03-11T07:11:43.510Z,98.31
2018-03-11T07:12:43.525Z,98.79
2018-03-11T07:13:43.568Z,98.07
2018-03-11T07:14:43.588Z,98.22
2018-03-11T07:15:43.611Z,98.31
2018-03-11T07:16:43.620Z,98.12
2018-03-11T07:17:43.644Z,97.83
2018-03-11T07:18:43.668Z,97.78
2018-03-11T07:19:43.695Z,98.12
2018-03-11T07:20:43.724Z,98.03
2018-03-11T07:21:44.372Z,98.22
2018-03-11T07:22:43.779Z,98.03
2018-03-11T07:23:43.817Z,97.83
2018-03-11T07:24:43.810Z,98.03
2018-03-11T07:25:43.833Z,98.12
2018-03-11T07:26:43.854Z,98.22
2018-03-11T07:27:43.877Z,98.50
2018-03-11T07:28:43.920Z,98.88
2018-03-11T07:29:43.957Z,98.12
2018-03-11T07:30:43.952Z,98.03
2018-03-11T07:31:43.976Z,98.03
2018-03-11T07:32:44.014Z,98.12
2018-03-11T07:33:44.019Z,98.03
2018-03-11T07:34:44.067Z,98.22
2018-03-11T07:35:44.072Z,98.03
2018-03-11T07:36:44.084Z,98.12
2018-03-11T07:37:44.115Z,98.03
2018-03-11T07:38:44.146Z,97.93
2018-03-11T07:39:44.166Z,98.12
2018-03-11T07:40:44.192Z,97.83
2018-03-11T07:41:44.227Z,97.64
2018-03-11T07:42:44.234Z,98.12
2018-03-11T07:43:44.306Z,98.12
2018-03-11T07:44:44.295Z,98.12
2018-03-11T07:45:44.319Z,97.93
2018-03-11T07:46:44.327Z,97.88
2018-03-11T07:47:44.364Z,98.27
2018-03-11T07:48:44.375Z,97.69
2018-03-11T07:49:44.400Z,98.08
2018-03-11T07:50:44.422Z,97.88
2018-03-11T07:51:44.469Z,97.98
2018-03-11T07:52:44.473Z,98.08
2018-03-11T07:53:44.512Z,97.31
2018-03-11T07:54:44.544Z,97.22
2018-03-11T07:55:44.548Z,97.50
2018-03-11T07:56:44.558Z,98.17
2018-03-11T07:57:44.586Z,98.17
2018-03-11T07:58:44.608Z,97.69
2018-03-11T07:59:44.644Z,97.41
2018-03-11T08:00:44.661Z,97.60
2018-03-11T08:01:44.679Z,97.41
2018-03-11T08:02:44.710Z,97.41
2018-03-11T08:03:44.730Z,97.55
2018-03-11T08:04:44.750Z,97.46
2018-03-11T08:05:44.775Z,97.46
2018-03-11T08:06:44.802Z,97.93
2018-03-11T08:07:44.826Z,97.74
2018-03-11T08:08:44.850Z,96.89
2018-03-11T08:09:44.880Z,97.17
2018-03-11T08:10:44.893Z,96.98
2018-03-11T08:11:44.930Z,97.36
2018-03-11T08:12:44.954Z,97.08
2018-03-11T08:13:44.970Z,97.17
2018-03-11T08:14:44.992Z,97.36
2018-03-11T08:15:45.043Z,96.79
2018-03-11T08:16:45.037Z,97.27
2018-03-11T08:17:45.078Z,97.41
2018-03-11T08:18:45.109Z,97.51
2018-03-11T08:19:45.135Z,97.27
2018-03-11T08:20:45.134Z,97.41
2018-03-11T08:21:45.165Z,96.94
2018-03-11T08:22:45.186Z,96.94
2018-03-11T08:23:45.207Z,96.08
2018-03-11T08:24:45.248Z,96.08
2018-03-11T08:25:45.253Z,96.27
2018-03-11T08:26:45.292Z,96.27
2018-03-11T08:27:45.306Z,95.41
2018-03-11T08:28:45.331Z,95.51
2018-03-11T08:29:45.358Z,96.60
2018-03-11T08:30:45.377Z,96.03
2018-03-11T08:31:45.401Z,95.36
2018-03-11T08:32:45.434Z,95.36
2018-03-11T08:33:45.455Z,95.17
2018-03-11T08:34:45.491Z,95.65
2018-03-11T08:35:45.499Z,95.08
2018-03-11T08:36:45.555Z,95.27
2018-03-11T08:37:45.548Z,94.41
2018-03-11T08:38:45.570Z,94.89
2018-03-11T08:39:45.607Z,94.79
2018-03-11T08:40:45.635Z,94.17
2018-03-11T08:41:45.646Z,94.17
2018-03-11T08:42:45.715Z,94.27
2018-03-11T08:43:45.707Z,94.22
2018-03-11T08:44:45.730Z,93.70
2018-03-11T08:45:45.747Z,93.88
2018-03-11T08:46:45.776Z,93.51
2018-03-11T08:47:45.804Z,93.70
2018-03-11T08:48:45.820Z,93.51
2018-03-11T08:49:45.850Z,92.74
2018-03-11T08:50:45.869Z,92.74
2018-03-11T08:51:45.891Z,92.65
2018-03-11T08:52:45.913Z,92.84
2018-03-11T08:53:46.004Z,92.93
2018-03-11T08:54:45.964Z,92.55
2018-03-11T08:55:46.000Z,92.55
2018-03-11T08:56:46.009Z,92.36
2018-03-11T08:57:46.047Z,92.36
2018-03-11T08:58:46.060Z,91.88
2018-03-11T08:59:46.098Z,92.41
2018-03-11T09:00:46.122Z,91.83
2018-03-11T09:01:46.143Z,92.12
2018-03-11T09:02:46.169Z,91.74
2018-03-11T09:03:46.192Z,92.03
2018-03-11T09:04:46.232Z,91.93
2018-03-11T09:05:46.242Z,92.03
2018-03-11T09:06:46.265Z,91.93
2018-03-11T09:07:46.290Z,91.74
2018-03-11T09:08:46.319Z,91.46
2018-03-11T09:09:46.341Z,91.36
2018-03-11T09:10:46.369Z,90.69
2018-03-11T09:11:46.389Z,90.69
2018-03-11T09:12:46.417Z,91.07
2018-03-11T09:13:47.380Z,90.64
2018-03-11T09:14:46.469Z,90.36
2018-03-11T09:15:46.576Z,89.88
2018-03-11T09:16:46.532Z,89.69
2018-03-11T09:17:46.543Z,90.26
2018-03-11T09:18:46.580Z,89.12
2018-03-11T09:19:46.603Z,89.31
2018-03-11T09:20:46.615Z,88.92
2018-03-11T09:21:46.643Z,89.31
2018-03-11T09:22:46.684Z,88.97
2018-03-11T09:23:46.694Z,88.78
2018-03-11T09:24:46.720Z,88.01
2018-03-11T09:25:46.753Z,88.01
2018-03-11T09:26:46.810Z,87.82
2018-03-11T09:27:46.808Z,87.20
2018-03-11T09:28:46.840Z,86.53
2018-03-11T09:29:46.859Z,85.90
2018-03-11T09:30:46.893Z,84.19
2018-03-11T09:31:46.900Z,82.31
2018-03-11T09:32:46.940Z,80.77
2018-03-11T09:33:46.953Z,78.13
2018-03-11T09:34:47.023Z,76.79
2018-03-11T09:35:47.009Z,75.83
2018-03-11T09:36:47.040Z,74.89
2018-03-11T09:37:47.068Z,72.94
2018-03-11T09:38:47.101Z,72.27
2018-03-11T09:39:47.113Z,72.55
2018-03-11T09:40:47.142Z,71.37
2018-03-11T09:41:47.170Z,71.11
2018-03-11T09:42:47.200Z,72.55
2018-03-11T09:43:47.231Z,71.53
2018-03-11T09:44:47.255Z,71.50
2018-03-11T09:45:47.289Z,72.45
2018-03-11T09:46:47.313Z,72.55
2018-03-11T09:47:47.334Z,71.66
2018-03-11T09:48:47.372Z,70.13
2018-03-11T09:49:47.397Z,69.68
2018-03-11T09:50:47.424Z,68.08
2018-03-11T09:51:47.461Z,68.30
2018-03-11T09:52:47.488Z,68.79
2018-03-11T09:53:47.533Z,69.17
2018-03-11T09:54:47.544Z,70.00
2018-03-11T09:55:47.588Z,69.84
2018-03-11T09:56:47.608Z,69.11
2018-03-11T09:57:47.651Z,67.67
2018-03-11T09:58:47.685Z,66.93
2018-03-11T09:59:47.706Z,66.74
2018-03-11T10:00:47.738Z,65.88
2018-03-11T10:01:47.765Z,65.05
2018-03-11T10:02:47.788Z,62.16
2018-03-11T10:03:47.874Z,61.13
2018-03-11T10:04:47.849Z,58.47
2018-03-11T10:05:47.900Z,57.95
2018-03-11T10:06:48.025Z,59.20
2018-03-11T10:07:47.948Z,59.85
2018-03-11T10:08:47.999Z,60.33
2018-03-11T10:09:48.014Z,59.59
2018-03-11T10:10:48.054Z,58.98
2018-03-11T10:11:48.094Z,59.66
2018-03-11T10:12:48.132Z,60.21
2018-03-11T10:13:48.143Z,60.94
2018-03-11T10:14:48.185Z,61.16
2018-03-11T10:15:48.228Z,59.94
2018-03-11T10:16:48.244Z,58.82
2018-03-11T10:17:48.278Z,58.60
2018-03-11T10:18:48.321Z,59.94
2018-03-11T10:19:48.363Z,59.11
2018-03-11T10:20:48.400Z,60.01
2018-03-11T10:21:48.460Z,60.24
2018-03-11T10:22:48.447Z,59.75
2018-03-11T10:23:48.489Z,58.56
2018-03-11T10:24:48.517Z,57.50
2018-03-11T10:25:48.568Z,58.44
2018-03-11T10:26:48.579Z,59.82
2018-03-11T10:27:48.614Z,60.21
2018-03-11T10:28:48.645Z,60.27
2018-03-11T10:29:48.692Z,57.31
2018-03-11T10:30:48.716Z,56.79
2018-03-11T10:31:48.753Z,56.15
2018-03-11T10:32:48.788Z,56.92
2018-03-11T10:33:48.824Z,57.47
2018-03-11T10:34:48.860Z,57.31
2018-03-11T10:35:48.903Z,56.82
2018-03-11T10:36:48.936Z,56.14
2018-03-11T10:37:49.027Z,53.61
2018-03-11T10:38:48.994Z,50.18
2018-03-11T10:39:49.030Z,51.61
2018-03-11T10:40:49.080Z,53.69
2018-03-11T10:41:49.112Z,50.12
2018-03-11T10:42:49.141Z,47.47
2018-03-11T10:43:49.175Z,46.75
2018-03-11T10:44:49.207Z,49.00
2018-03-11T10:45:49.243Z,50.93
2018-03-11T10:46:49.279Z,53.67
2018-03-11T10:47:49.313Z,57.06
2018-03-11T10:48:49.363Z,58.98
2018-03-11T10:49:49.455Z,58.44
2018-03-11T10:50:49.484Z,56.47
2018-03-11T10:51:49.454Z,54.14
2018-03-11T10:52:49.492Z,51.13
2018-03-11T10:53:49.534Z,48.95
2018-03-11T10:54:49.574Z,50.21
2018-03-11T10:55:49.598Z,50.04
2018-03-11T10:56:49.630Z,50.21
2018-03-11T10:57:49.665Z,48.74
2018-03-11T10:58:49.715Z,47.74
2018-03-11T10:59:49.764Z,47.91
2018-03-11T11:00:50.425Z,48.69
2018-03-11T11:01:49.847Z,49.17
2018-03-11T11:02:49.851Z,49.51
2018-03-11T11:03:49.883Z,50.76
2018-03-11T11:04:49.920Z,50.38
2018-03-11T11:05:49.963Z,50.54
2018-03-11T11:06:49.999Z,50.71
2018-03-11T11:07:50.027Z,47.94
2018-03-11T11:08:50.060Z,46.22
2018-03-11T11:09:50.115Z,46.41
2018-03-11T11:10:50.139Z,45.22
2018-03-11T11:11:50.175Z,43.89
2018-03-11T11:12:50.212Z,42.65
2018-03-11T11:13:50.241Z,42.09
2018-03-11T11:14:50.287Z,41.36
2018-03-11T11:15:50.319Z,39.53
2018-03-11T11:16:50.360Z,39.62
2018-03-11T11:17:50.393Z,40.34
2018-03-11T11:18:50.438Z,41.33
2018-03-11T11:19:50.462Z,40.67
2018-03-11T11:20:50.507Z,39.55
2018-03-11T11:21:50.616Z,40.58
2018-03-11T11:22:50.590Z,43.96
2018-03-11T11:23:50.623Z,42.50
2018-03-11T11:24:50.657Z,39.41
2018-03-11T11:25:50.683Z,40.00
2018-03-11T11:26:50.765Z,39.18
2018-03-11T11:27:50.763Z,37.74
2018-03-11T11:28:50.800Z,41.02
2018-03-11T11:29:50.845Z,41.20
2018-03-11T11:30:50.900Z,43.61
2018-03-11T11:31:50.907Z,46.56
2018-03-11T11:32:50.950Z,49.29
2018-03-11T11:33:51.003Z,53.23
2018-03-11T11:34:51.027Z,55.16
2018-03-11T11:35:51.059Z,55.65
2018-03-11T11:36:51.093Z,55.81
2018-03-11T11:37:51.128Z,57.42
2018-03-11T11:38:51.169Z,58.73
2018-03-11T11:39:51.193Z,61.01
2018-03-11T11:40:51.257Z,61.40
2018-03-11T11:41:51.270Z,61.14
2018-03-11T11:42:51.300Z,60.82
2018-03-11T11:43:51.343Z,60.60
2018-03-11T11:44:51.380Z,62.10
2018-03-11T11:45:51.419Z,62.39
2018-03-11T11:46:51.437Z,62.45
2018-03-11T11:47:51.481Z,63.60
2018-03-11T11:48:51.564Z,64.37
2018-03-11T11:49:51.567Z,64.85
2018-03-11T11:50:51.621Z,64.76
2018-03-11T11:51:51.602Z,65.20
2018-03-11T11:52:51.637Z,65.97
2018-03-11T11:53:51.673Z,66.74
2018-03-11T11:54:51.710Z,67.66
2018-03-11T11:55:51.745Z,67.76
2018-03-11T11:56:51.779Z,67.66
2018-03-11T11:57:51.817Z,67.66
2018-03-11T11:58:51.834Z,68.43
2018-03-11T11:59:51.872Z,68.24
2018-03-11T12:00:51.901Z,68.49
2018-03-11T12:01:51.938Z,69.07
2018-03-11T12:02:51.969Z,70.70
2018-03-11T12:03:52.025Z,69.83
2018-03-11T12:04:52.046Z,68.85
2018-03-11T12:05:52.067Z,66.58
2018-03-11T12:06:52.084Z,65.08
2018-03-11T12:07:52.114Z,62.93
2018-03-11T12:08:52.147Z,60.85
2018-03-11T12:09:52.197Z,59.44
2018-03-11T12:10:52.209Z,58.40
2018-03-11T12:11:52.240Z,57.70
2018-03-11T12:12:52.284Z,57.64
2018-03-11T12:13:52.307Z,56.63
2018-03-11T12:14:52.345Z,55.74
2018-03-11T12:15:52.372Z,55.83
2018-03-11T12:16:52.405Z,56.10
2018-03-11T12:17:52.455Z,57.25
2018-03-11T12:18:52.471Z,56.12
2018-03-11T12:19:52.527Z,55.09
2018-03-11T12:20:52.541Z,52.93
2018-03-11T12:21:52.577Z,52.91
2018-03-11T12:22:52.603Z,54.00
2018-03-11T12:23:53.472Z,55.90
2018-03-11T12:24:52.736Z,57.22
2018-03-11T12:25:52.707Z,58.15
2018-03-11T12:26:52.749Z,60.34
2018-03-11T12:27:52.784Z,60.82
2018-03-11T12:28:52.814Z,61.40
2018-03-11T12:29:52.869Z,62.01
2018-03-11T12:30:52.890Z,62.52
2018-03-11T12:31:52.910Z,65.23
2018-03-11T12:32:52.959Z,63.60
2018-03-11T12:33:52.978Z,63.12
2018-03-11T12:34:53.010Z,63.22
2018-03-11T12:35:53.051Z,62.26
2018-03-11T12:36:53.086Z,64.28
2018-03-11T12:37:53.104Z,63.32
2018-03-11T12:38:53.138Z,62.99
2018-03-11T12:39:53.163Z,63.48
2018-03-11T12:40:53.210Z,64.43
2018-03-11T12:41:53.233Z,64.05
2018-03-11T12:42:53.272Z,65.40
2018-03-11T12:43:53.294Z,65.40
2018-03-11T12:44:53.331Z,66.07
2018-03-11T12:45:53.371Z,67.13
2018-03-11T12:46:53.389Z,65.05
2018-03-11T12:47:53.419Z,64.95
2018-03-11T12:48:53.449Z,66.39
2018-03-11T12:49:53.478Z,66.49
2018-03-11T12:50:53.520Z,66.67
2018-03-11T12:51:53.543Z,67.32
2018-03-11T12:52:53.570Z,69.07